Time;durP1;ratioP1;P1;durP2;ratioP2;P2;SDS_P1;SDS_P2;PMS_P1;PMS_P2;Temp;Humidity;BMP_temperature;BMP_pressure;BME280_temperature;BME280_humidity;BME280_pressure;Samples;Min_cycle;Max_cycle;Signal;HPM_P1;HPM_P2
2022/02/16 00:00:43;;;;;;;6.22;3.67;;;-1.10;68.50;;;;;;5038596;28;20053;-85
2022/02/16 00:03:09;;;;;;;7.80;4.65;;;-1.20;68.70;;;;;;5041910;28;20038;-86
2022/02/16 00:05:36;;;;;;;12.50;5.95;;;-1.20;68.80;;;;;;5048084;28;20029;-87
2022/02/16 00:08:04;;;;;;;8.40;5.30;;;-1.20;68.90;;;;;;5049010;28;20029;-87
2022/02/16 00:10:30;;;;;;;8.82;5.10;;;-1.20;69.00;;;;;;5046135;28;20037;-88
2022/02/16 00:12:56;;;;;;;8.90;5.30;;;-1.30;69.20;;;;;;5041459;28;20025;-87
2022/02/16 00:15:23;;;;;;;7.32;4.53;;;-1.30;69.20;;;;;;5030668;28;20021;-86
2022/02/16 00:17:51;;;;;;;;;;;-1.30;69.40;;;;;;5047431;28;20108;-87
2022/02/16 00:20:17;;;;;;;7.90;4.43;;;-1.30;69.40;;;;;;5042246;28;19963;-86
2022/02/16 00:22:43;;;;;;;10.82;4.72;;;-1.30;69.50;;;;;;5038762;28;20028;-88
2022/02/16 00:25:09;;;;;;;11.27;5.25;;;-1.30;69.70;;;;;;5021993;28;20029;-89
2022/02/16 00:27:35;;;;;;;8.60;5.63;;;-1.30;69.70;;;;;;5040058;28;20033;-90
2022/02/16 00:30:01;;;;;;;11.07;6.07;;;-1.30;69.90;;;;;;5021195;28;20058;-89
2022/02/16 00:32:27;;;;;;;7.85;4.93;;;-1.30;69.80;;;;;;5043832;28;20398;-90
2022/02/16 00:34:53;;;;;;;10.90;5.22;;;-1.30;69.90;;;;;;5041161;28;20041;-90
2022/02/16 00:37:19;;;;;;;8.43;4.72;;;-1.30;70.00;;;;;;5042326;28;20037;-89
2022/02/16 00:39:44;;;;;;;5.85;4.63;;;-1.30;70.20;;;;;;5026163;28;20037;-89
2022/02/16 00:42:10;;;;;;;6.95;4.80;;;-1.30;70.30;;;;;;5039944;28;20017;-89
2022/02/16 00:44:36;;;;;;;10.60;5.43;;;-1.30;70.30;;;;;;5042946;28;20059;-88
2022/02/16 00:47:02;;;;;;;8.90;5.35;;;-1.30;70.30;;;;;;5027784;28;20077;-90
2022/02/16 00:49:28;;;;;;;10.85;6.07;;;-1.40;70.30;;;;;;5053285;28;20017;-88
2022/02/16 00:51:54;;;;;;;8.38;5.20;;;-1.40;70.60;;;;;;5010203;28;20069;-87
2022/02/16 00:54:19;;;;;;;11.60;5.25;;;-1.40;70.70;;;;;;5002545;28;20015;-85
2022/02/16 00:56:45;;;;;;;9.07;5.18;;;-1.30;70.70;;;;;;5003440;28;20128;-88
2022/02/16 00:59:13;;;;;;;7.80;5.05;;;-1.40;70.70;;;;;;5000933;28;20034;-88
2022/02/16 01:01:39;;;;;;;13.65;6.38;;;-1.40;70.70;;;;;;5017418;28;20068;-90
2022/02/16 01:04:05;;;;;;;11.02;5.88;;;-1.40;70.80;;;;;;5016992;28;20034;-90
2022/02/16 01:06:31;;;;;;;9.27;5.22;;;-1.40;71.00;;;;;;5017910;28;20093;-90
2022/02/16 01:08:57;;;;;;;12.25;5.55;;;-1.40;71.20;;;;;;5011227;28;20062;-91
2022/02/16 01:11:25;;;;;;;9.30;5.28;;;-1.50;71.30;;;;;;4990802;28;20517;-91
2022/02/16 01:13:51;;;;;;;9.35;5.55;;;-1.50;71.60;;;;;;4986961;28;20026;-91
2022/02/16 01:16:17;;;;;;;8.43;6.53;;;-1.50;71.60;;;;;;5001975;28;20046;-91
2022/02/16 01:18:43;;;;;;;11.23;7.05;;;-1.40;71.70;;;;;;4985965;28;20122;-91
2022/02/16 01:21:09;;;;;;;9.50;6.20;;;-1.40;71.90;;;;;;5001144;28;20542;-92
2022/02/16 01:23:35;;;;;;;11.75;4.38;;;-1.40;72.10;;;;;;5012855;28;20036;-92
2022/02/16 01:26:00;;;;;;;12.70;4.88;;;-1.40;72.00;;;;;;5004323;28;20129;-92
2022/02/16 01:28:27;;;;;;;11.32;5.55;;;-1.40;71.90;;;;;;5004484;28;20150;-89
2022/02/16 01:30:53;;;;;;;10.30;5.30;;;-1.40;71.90;;;;;;4986912;28;20125;-90
2022/02/16 01:33:19;;;;;;;16.08;6.15;;;-1.40;72.00;;;;;;5002650;28;20034;-92
2022/02/16 01:35:44;;;;;;;9.00;4.85;;;-1.40;72.00;;;;;;5000964;28;20022;-92
2022/02/16 01:38:10;;;;;;;11.75;6.75;;;-1.40;72.00;;;;;;4991633;28;20236;-92
2022/02/16 01:40:36;;;;;;;9.80;6.32;;;-1.40;72.00;;;;;;5008066;28;20143;-91
2022/02/16 01:43:03;;;;;;;9.63;5.75;;;-1.40;72.10;;;;;;4993649;28;20029;-91
2022/02/16 01:45:30;;;;;;;11.68;6.00;;;-1.50;72.00;;;;;;4999827;28;20027;-90
2022/02/16 01:47:57;;;;;;;12.15;5.93;;;-1.50;72.10;;;;;;4994707;28;20044;-92
2022/02/16 01:50:23;;;;;;;15.43;7.97;;;-1.50;72.80;;;;;;5016120;28;20030;-91
2022/02/16 01:52:49;;;;;;;12.07;5.38;;;-1.50;72.60;;;;;;4991227;28;20455;-91
2022/02/16 01:55:16;;;;;;;13.02;5.22;;;-1.50;72.50;;;;;;5017031;28;20050;-90
2022/02/16 01:57:43;;;;;;;12.57;5.88;;;-1.50;72.50;;;;;;5024411;28;20048;-90
2022/02/16 02:00:10;;;;;;;11.45;6.43;;;-1.50;72.50;;;;;;5009354;28;20072;-91
2022/02/16 02:02:36;;;;;;;9.40;4.90;;;-1.50;72.60;;;;;;5026796;28;20029;-91
2022/02/16 02:05:03;;;;;;;9.77;5.43;;;-1.50;72.60;;;;;;5022050;28;20104;-91
2022/02/16 02:07:29;;;;;;;11.57;5.45;;;-1.50;72.80;;;;;;5004241;28;20033;-91
2022/02/16 02:09:55;;;;;;;12.57;6.03;;;-1.60;72.90;;;;;;5007293;28;20026;-88
2022/02/16 02:12:20;;;;;;;12.02;6.90;;;-1.60;73.10;;;;;;5001917;28;20125;-88
2022/02/16 02:14:51;;;;;;;9.45;6.38;;;-1.60;73.30;;;;;;5006048;28;20034;-89
2022/02/16 02:17:17;;;;;;;8.02;5.38;;;-1.60;73.40;;;;;;5032524;28;20033;-87
2022/02/16 02:19:42;;;;;;;11.02;6.13;;;-1.60;73.60;;;;;;5035916;28;20026;-89
2022/02/16 02:22:08;;;;;;;12.75;6.50;;;-1.60;73.50;;;;;;5031313;28;20033;-89
2022/02/16 02:24:34;;;;;;;10.93;6.78;;;-1.70;73.50;;;;;;5033541;28;20014;-88
2022/02/16 02:27:00;;;;;;;10.38;6.28;;;-1.70;73.50;;;;;;5035137;28;20065;-87
2022/02/16 02:29:26;;;;;;;12.85;6.68;;;-1.70;73.70;;;;;;5036928;28;20032;-86
2022/02/16 02:31:52;;;;;;;10.93;6.75;;;-1.70;74.00;;;;;;5013895;28;20026;-85
2022/02/16 02:34:19;;;;;;;13.00;5.95;;;-1.70;74.20;;;;;;5030607;28;20029;-85
2022/02/16 02:36:44;;;;;;;11.65;6.43;;;-1.80;74.30;;;;;;5029276;28;20029;-86
2022/02/16 02:39:10;;;;;;;9.90;5.78;;;-1.80;74.30;;;;;;5030759;28;20037;-88
2022/02/16 02:41:36;;;;;;;10.80;5.78;;;-1.80;74.30;;;;;;5028133;28;20053;-87
2022/02/16 02:44:02;;;;;;;10.80;6.13;;;-1.70;74.40;;;;;;5031994;28;20022;-87
2022/02/16 02:46:28;;;;;;;10.30;6.32;;;-1.80;74.20;;;;;;5020574;28;20038;-87
2022/02/16 02:48:54;;;;;;;10.02;6.38;;;-1.80;74.30;;;;;;5027388;28;20033;-90
2022/02/16 02:51:20;;;;;;;10.73;6.90;;;-1.80;74.40;;;;;;5011898;28;20030;-90
2022/02/16 02:53:46;;;;;;;10.35;6.38;;;-1.80;74.50;;;;;;5001250;28;20022;-90
2022/02/16 02:56:12;;;;;;;17.33;7.35;;;-1.80;74.60;;;;;;5017402;28;20213;-90
2022/02/16 02:58:38;;;;;;;12.93;7.22;;;-1.80;74.70;;;;;;5019467;28;20037;-91
2022/02/16 03:01:06;;;;;;;9.00;6.03;;;-1.80;74.80;;;;;;5016244;28;20022;-91
2022/02/16 03:03:38;;;;;;;10.32;6.95;;;-1.90;74.80;;;;;;5017962;28;20036;-92
2022/02/16 03:06:07;;;;;;;11.77;6.45;;;-1.80;75.00;;;;;;5002250;28;20123;-91
2022/02/16 03:08:35;;;;;;;8.07;6.32;;;-1.80;74.90;;;;;;5000605;28;20034;-92
2022/02/16 03:11:01;;;;;;;10.70;6.57;;;-1.90;75.10;;;;;;5007065;28;20458;-90
2022/02/16 03:13:26;;;;;;;11.55;6.60;;;-1.90;75.40;;;;;;5047768;28;20041;-91
2022/02/16 03:15:53;;;;;;;11.93;5.88;;;-1.90;75.50;;;;;;5009244;28;20076;-87
2022/02/16 03:18:23;;;;;;;9.13;6.05;;;-1.90;75.80;;;;;;5014719;28;20518;-88
2022/02/16 03:20:50;;;;;;;14.95;7.50;;;-1.90;75.80;;;;;;5014606;28;20034;-90
2022/02/16 03:23:17;;;;;;;15.57;8.15;;;-1.90;75.90;;;;;;5015741;28;20399;-89
2022/02/16 03:25:43;;;;;;;13.95;6.38;;;-1.90;75.90;;;;;;5018764;28;20058;-91
2022/02/16 03:28:09;;;;;;;12.23;6.50;;;-2.00;76.00;;;;;;5017363;28;20431;-87
2022/02/16 03:30:34;;;;;;;13.40;6.28;;;-2.00;76.10;;;;;;5014649;28;20026;-88
2022/02/16 03:33:05;;;;;;;13.73;6.97;;;-2.00;76.20;;;;;;5028023;28;20493;-89
2022/02/16 03:35:31;;;;;;;13.07;7.47;;;-2.00;76.40;;;;;;5037279;28;20022;-88
2022/02/16 03:37:58;;;;;;;10.38;6.43;;;-1.90;76.40;;;;;;5018631;28;20046;-87
2022/02/16 03:40:24;;;;;;;13.63;7.70;;;-2.00;76.30;;;;;;5021177;28;20399;-89
2022/02/16 03:42:50;;;;;;;13.10;6.95;;;-2.00;76.40;;;;;;5017151;28;20760;-89
2022/02/16 03:45:17;;;;;;;15.52;6.90;;;-2.00;76.60;;;;;;5020148;28;20499;-90
2022/02/16 03:47:44;;;;;;;;;;;-2.00;76.80;;;;;;5025884;28;20033;-90
2022/02/16 03:50:11;;;;;;;11.45;6.85;;;-2.00;76.60;;;;;;5023303;28;19912;-90
2022/02/16 03:52:36;;;;;;;10.85;6.40;;;-2.10;77.30;;;;;;5021136;28;20034;-88
2022/02/16 03:55:03;;;;;;;14.68;7.75;;;-2.10;77.20;;;;;;4998439;28;20018;-89
2022/02/16 03:57:28;;;;;;;13.82;8.35;;;-2.10;77.40;;;;;;4999313;28;20018;-89
2022/02/16 03:59:54;;;;;;;13.05;7.55;;;-2.10;77.70;;;;;;5016090;28;20101;-91
2022/02/16 04:02:20;;;;;;;16.92;7.88;;;-2.10;77.90;;;;;;5031080;28;20025;-90
2022/02/16 04:04:46;;;;;;;9.60;6.45;;;-2.10;78.10;;;;;;5027540;28;20053;-90
2022/02/16 04:07:12;;;;;;;11.13;7.45;;;-2.10;78.30;;;;;;5013862;28;20038;-91
2022/02/16 04:09:38;;;;;;;14.35;7.68;;;-2.10;78.30;;;;;;5011452;28;20025;-91
2022/02/16 04:12:05;;;;;;;14.17;7.47;;;-2.10;78.40;;;;;;5032946;28;20382;-91
2022/02/16 04:14:30;;;;;;;11.80;7.93;;;-2.10;78.40;;;;;;5018414;28;20071;-93
2022/02/16 04:16:56;;;;;;;10.60;7.15;;;-2.10;78.50;;;;;;5018082;28;20142;-91
2022/02/16 04:19:22;;;;;;;15.48;7.90;;;-2.10;78.50;;;;;;5036519;28;20029;-90
2022/02/16 04:21:48;;;;;;;13.65;7.53;;;-2.10;78.60;;;;;;5039367;28;20159;-90
2022/02/16 04:24:13;;;;;;;12.90;7.38;;;-2.10;78.70;;;;;;5051577;28;20021;-89
2022/02/16 04:26:39;;;;;;;13.52;6.30;;;-2.00;78.70;;;;;;5023750;28;20037;-92
2022/02/16 04:29:05;;;;;;;15.15;7.60;;;-2.10;78.60;;;;;;5036142;28;20031;-92
2022/02/16 04:31:31;;;;;;;14.27;7.50;;;-2.10;78.70;;;;;;5030430;28;20032;-92
2022/02/16 04:33:58;;;;;;;17.10;8.60;;;-2.10;78.90;;;;;;5033206;28;20413;-92
2022/02/16 04:36:27;;;;;;;17.20;7.20;;;-2.10;79.00;;;;;;5019464;28;20030;-93
2022/02/16 04:38:59;;;;;;;15.77;8.50;;;-2.10;79.20;;;;;;5035642;28;20030;-91
2022/02/16 04:41:25;;;;;;;16.90;9.50;;;-2.10;79.40;;;;;;5041322;28;20100;-87
2022/02/16 04:43:52;;;;;;;15.13;9.35;;;-2.10;79.50;;;;;;5042578;28;20041;-89
2022/02/16 04:46:19;;;;;;;11.07;7.25;;;-2.10;79.50;;;;;;5041869;28;20056;-92
2022/02/16 04:48:45;;;;;;;;;;;-2.10;79.70;;;;;;5038700;28;20076;-92
2022/02/16 04:51:13;;;;;;;13.90;8.43;;;-2.00;79.70;;;;;;5031356;28;19905;-93
2022/02/16 04:53:39;;;;;;;13.98;9.02;;;-2.10;79.80;;;;;;5036784;28;20266;-92
2022/02/16 04:56:07;;;;;;;12.60;8.55;;;-2.10;80.00;;;;;;5032937;28;20025;-92
2022/02/16 04:58:33;;;;;;;18.50;7.63;;;-2.10;80.10;;;;;;5019428;28;20017;-92
2022/02/16 05:01:00;;;;;;;17.63;8.70;;;-2.10;80.30;;;;;;5059891;28;20009;-91
2022/02/16 05:03:29;;;;;;;12.90;9.00;;;-2.00;80.30;;;;;;5059888;28;20085;-90
2022/02/16 05:05:55;;;;;;;15.05;8.23;;;-2.00;80.30;;;;;;5024381;28;20033;-92
2022/02/16 05:08:21;;;;;;;16.92;8.90;;;-2.00;80.30;;;;;;5020229;28;20052;-92
2022/02/16 05:11:49;;;;;;;13.50;8.73;;;-2.00;80.30;;;;;;5040994;28;20021;-94
2022/02/16 05:14:16;;;;;;;18.15;8.73;;;-1.90;80.30;;;;;;5029187;28;20033;-93
2022/02/16 05:16:52;;;;;;;19.13;9.00;;;-1.90;80.10;;;;;;5050585;28;20048;-93
2022/02/16 05:19:18;;;;;;;19.33;9.82;;;-1.90;80.20;;;;;;5030362;28;20502;-93
2022/02/16 05:21:46;;;;;;;16.63;9.30;;;-1.90;80.40;;;;;;5031500;28;20076;-92
2022/02/16 05:24:16;;;;;;;17.88;9.27;;;-1.90;80.30;;;;;;5053563;28;20018;-94
2022/02/16 05:26:44;;;;;;;19.55;8.90;;;-1.90;80.40;;;;;;4996208;28;20046;-93
2022/02/16 05:29:13;;;;;;;14.10;8.23;;;-1.90;80.50;;;;;;4975723;28;20037;-94
2022/02/16 05:31:39;;;;;;;14.75;9.40;;;-1.80;80.40;;;;;;4948148;29;20051;-94
2022/02/16 05:34:06;;;;;;;15.00;8.52;;;-1.80;80.40;;;;;;4948494;29;20046;-94
2022/02/16 05:36:32;;;;;;;13.60;9.25;;;-1.80;80.40;;;;;;4941888;29;20068;-94
2022/02/16 05:38:58;;;;;;;20.25;10.50;;;-1.70;80.30;;;;;;4928485;29;20040;-91
2022/02/16 05:41:24;;;;;;;16.85;9.75;;;-1.60;80.20;;;;;;4934353;29;20051;-91
2022/02/16 05:43:51;;;;;;;21.25;9.23;;;-1.60;80.00;;;;;;4925572;29;20095;-93
2022/02/16 05:46:17;;;;;;;18.48;10.18;;;-1.60;79.80;;;;;;4942599;29;20043;-94
2022/02/16 05:48:43;;;;;;;12.27;8.43;;;-1.60;79.80;;;;;;4944124;29;20034;-92
2022/02/16 05:51:09;;;;;;;17.92;9.85;;;-1.50;79.80;;;;;;4931012;29;20095;-92
2022/02/16 05:53:39;;;;;;;20.80;11.13;;;-1.50;79.90;;;;;;4950435;29;20024;-94
2022/02/16 05:56:06;;;;;;;13.68;9.13;;;-1.50;79.80;;;;;;4936333;28;20532;-90
2022/02/16 05:58:32;;;;;;;18.60;10.38;;;-1.40;79.70;;;;;;4970681;28;20389;-93
2022/02/16 06:00:59;;;;;;;15.50;9.68;;;-1.40;79.50;;;;;;4969773;28;20023;-92
2022/02/16 06:03:25;;;;;;;14.65;9.60;;;-1.40;79.40;;;;;;4972227;28;20034;-95
2022/02/16 06:05:52;;;;;;;20.30;10.68;;;-1.40;79.30;;;;;;4975000;28;20059;-92
2022/02/16 06:08:17;;;;;;;17.00;9.30;;;-1.40;79.20;;;;;;4989523;28;20074;-92
2022/02/16 06:10:43;;;;;;;14.98;9.15;;;-1.40;79.20;;;;;;5011441;28;20071;-91
2022/02/16 06:13:09;;;;;;;15.55;9.80;;;-1.50;79.20;;;;;;5055569;28;20013;-92
2022/02/16 06:15:36;;;;;;;16.67;11.30;;;-1.50;79.20;;;;;;5032156;28;20021;-89
2022/02/16 06:18:02;;;;;;;18.35;10.90;;;-1.40;79.40;;;;;;5016853;28;20121;-93
2022/02/16 06:20:28;;;;;;;17.40;9.38;;;-1.40;79.50;;;;;;4997909;28;20034;-91
2022/02/16 06:22:56;;;;;;;16.30;10.10;;;-1.40;79.60;;;;;;5004935;28;20162;-90
2022/02/16 06:25:25;;;;;;;23.25;10.43;;;-1.40;79.50;;;;;;4981055;28;20021;-92
2022/02/16 06:27:51;;;;;;;21.65;10.35;;;-1.40;79.60;;;;;;5014345;28;20046;-92
2022/02/16 06:30:18;;;;;;;22.05;10.52;;;-1.30;79.80;;;;;;4998366;28;20182;-92
2022/02/16 06:33:21;;;;;;;17.33;11.10;;;-1.30;79.80;;;;;;5017686;28;20038;-89
2022/02/16 06:35:47;;;;;;;17.30;9.80;;;-1.30;79.90;;;;;;5001530;28;20279;-87
2022/02/16 06:38:13;;;;;;;18.65;10.07;;;-1.30;80.10;;;;;;5014726;28;20046;-91
2022/02/16 06:40:41;;;;;;;18.25;10.85;;;-1.30;80.20;;;;;;5013975;28;20127;-94
2022/02/16 06:43:06;;;;;;;18.33;11.18;;;-1.20;80.30;;;;;;4989224;28;20031;-89
2022/02/16 06:45:41;;;;;;;19.20;11.02;;;-1.10;80.20;;;;;;4993688;28;20043;-84
2022/02/16 06:48:07;;;;;;;22.10;10.60;;;-1.10;80.20;;;;;;4982041;28;20085;-91
2022/02/16 06:50:36;;;;;;;26.13;14.45;;;-1.00;80.20;;;;;;4975960;28;20046;-91
2022/02/16 06:53:02;;;;;;;18.65;11.45;;;-1.00;80.00;;;;;;4979171;28;20047;-83
2022/02/16 06:55:27;;;;;;;22.75;12.43;;;-0.90;80.10;;;;;;4964264;28;20528;-81
2022/02/16 06:57:53;;;;;;;20.00;11.27;;;-0.90;80.10;;;;;;4967637;28;20030;-83
2022/02/16 07:00:19;;;;;;;23.38;10.73;;;-0.80;80.10;;;;;;4991277;28;20029;-83
2022/02/16 07:02:46;;;;;;;19.13;11.30;;;-0.80;80.10;;;;;;4991029;28;20034;-81
2022/02/16 07:05:12;;;;;;;19.77;11.57;;;-0.70;80.00;;;;;;4965845;28;20030;-84
2022/02/16 07:07:38;;;;;;;21.55;10.80;;;-0.70;80.00;;;;;;4982464;28;20049;-82
2022/02/16 07:10:05;;;;;;;22.65;11.27;;;-0.60;80.10;;;;;;4992303;28;20023;-83
2022/02/16 07:12:32;;;;;;;18.55;11.13;;;-0.60;80.10;;;;;;4991382;28;20069;-83
2022/02/16 07:14:58;;;;;;;21.60;12.40;;;-0.50;80.10;;;;;;5027788;28;20445;-83
2022/02/16 07:17:24;;;;;;;17.38;10.63;;;-0.50;80.10;;;;;;5032609;28;20096;-82
2022/02/16 07:19:50;;;;;;;24.17;13.25;;;-0.40;80.00;;;;;;5032359;28;20033;-84
2022/02/16 07:22:16;;;;;;;19.15;10.65;;;-0.30;80.00;;;;;;5012583;28;20502;-83
2022/02/16 07:24:47;;;;;;;20.20;9.95;;;-0.20;79.80;;;;;;4994833;28;20167;-82
2022/02/16 07:27:29;;;;;;;15.25;10.48;;;-0.10;79.80;;;;;;5012567;28;20049;-82
2022/02/16 07:29:55;;;;;;;18.60;10.68;;;-0.10;79.60;;;;;;5012356;28;20029;-84
2022/02/16 07:32:21;;;;;;;23.77;11.35;;;0.00;79.60;;;;;;5012125;28;20026;-82
2022/02/16 07:34:47;;;;;;;21.02;10.98;;;0.00;78.70;;;;;;5012755;28;20072;-84
2022/02/16 07:37:12;;;;;;;24.10;12.48;;;0.00;78.20;;;;;;4991280;28;20054;-83
2022/02/16 07:39:38;;;;;;;24.50;11.65;;;0.00;78.30;;;;;;4993008;28;20439;-85
2022/02/16 07:42:24;;;;;;;20.23;11.55;;;0.00;78.40;;;;;;4990956;28;20033;-83
2022/02/16 07:44:53;;;;;;;19.60;11.07;;;0.10;78.50;;;;;;4993804;28;20022;-84
2022/02/16 07:47:19;;;;;;;17.50;9.52;;;0.10;78.20;;;;;;4991310;28;20035;-85
2022/02/16 07:49:45;;;;;;;21.25;11.02;;;0.20;78.20;;;;;;4993576;28;20026;-82
2022/02/16 07:52:11;;;;;;;20.05;11.07;;;0.20;77.70;;;;;;4991928;28;20026;-84
2022/02/16 07:54:37;;;;;;;16.95;11.30;;;0.20;77.90;;;;;;4994713;28;20165;-83
2022/02/16 07:57:03;;;;;;;20.23;9.25;;;0.20;77.80;;;;;;5002588;28;20021;-84
2022/02/16 07:59:29;;;;;;;18.10;10.95;;;0.20;77.80;;;;;;5017680;28;20053;-84
2022/02/16 08:01:58;;;;;;;20.75;10.13;;;0.20;77.70;;;;;;5019531;28;20018;-83
2022/02/16 08:04:24;;;;;;;17.23;10.75;;;0.20;77.90;;;;;;5021440;28;20022;-83
2022/02/16 08:06:50;;;;;;;23.73;11.60;;;0.30;78.20;;;;;;5019926;28;20061;-82
2022/02/16 08:09:17;;;;;;;20.13;11.43;;;0.30;78.10;;;;;;5017546;28;20072;-84
2022/02/16 08:11:44;;;;;;;26.00;11.85;;;0.40;78.20;;;;;;5015546;28;20030;-82
2022/02/16 08:14:11;;;;;;;24.60;12.40;;;0.50;78.20;;;;;;5015450;28;20071;-84
2022/02/16 08:16:37;;;;;;;17.30;10.75;;;0.60;77.70;;;;;;5016151;28;20029;-81
2022/02/16 08:19:05;;;;;;;20.13;12.77;;;0.70;77.30;;;;;;5016069;28;20022;-84
2022/02/16 08:21:31;;;;;;;17.48;11.00;;;0.70;77.40;;;;;;5017467;28;20026;-82
2022/02/16 08:23:57;;;;;;;23.10;11.40;;;0.90;77.30;;;;;;5016910;28;20103;-84
2022/02/16 08:26:22;;;;;;;23.58;11.82;;;1.10;76.70;;;;;;5022760;28;20046;-83
2022/02/16 08:28:48;;;;;;;22.80;12.98;;;1.20;76.20;;;;;;5013206;28;20030;-85
2022/02/16 08:31:14;;;;;;;21.08;14.20;;;2.00;76.40;;;;;;4996031;28;20500;-82
2022/02/16 08:33:40;;;;;;;24.15;11.40;;;3.20;73.50;;;;;;4998305;28;20070;-82
2022/02/16 08:36:07;;;;;;;19.42;11.80;;;4.80;69.90;;;;;;4996276;28;20041;-80
2022/02/16 08:38:33;;;;;;;14.03;9.97;;;5.40;63.40;;;;;;5013772;28;20585;-82
2022/02/16 08:40:59;;;;;;;17.40;11.82;;;5.60;63.00;;;;;;5018333;28;20259;-84
2022/02/16 08:43:26;;;;;;;22.65;11.10;;;6.00;63.10;;;;;;5003318;28;20022;-83
2022/02/16 08:45:52;;;;;;;23.15;12.48;;;6.20;59.80;;;;;;5032242;28;20057;-82
2022/02/16 08:48:21;;;;;;;23.63;10.13;;;6.00;60.20;;;;;;5026278;28;20042;-84
2022/02/16 08:50:47;;;;;;;21.23;11.30;;;6.00;60.30;;;;;;5032315;28;20060;-83
2022/02/16 08:53:13;;;;;;;19.55;11.13;;;5.80;59.20;;;;;;4998531;28;20033;-83
2022/02/16 08:55:38;;;;;;;20.58;12.63;;;5.50;59.10;;;;;;5015544;28;20026;-83
2022/02/16 08:58:05;;;;;;;21.08;12.68;;;5.40;60.70;;;;;;5014990;28;20022;-84
2022/02/16 09:00:31;;;;;;;17.08;10.90;;;5.60;60.10;;;;;;5015463;28;20022;-82
2022/02/16 09:02:57;;;;;;;18.83;10.85;;;5.90;59.60;;;;;;5016861;28;20442;-82
2022/02/16 09:05:23;;;;;;;16.58;10.02;;;5.90;59.30;;;;;;5009295;28;20101;-81
2022/02/16 09:07:49;;;;;;;18.25;12.77;;;6.00;59.50;;;;;;5017381;28;20041;-84
2022/02/16 09:10:15;;;;;;;22.80;15.18;;;6.10;59.10;;;;;;5016367;28;20054;-83
2022/02/16 09:12:40;;;;;;;20.73;15.13;;;6.40;59.30;;;;;;5015054;28;20025;-83
2022/02/16 09:15:06;;;;;;;19.70;12.73;;;7.40;58.40;;;;;;5014730;28;20029;-83
2022/02/16 09:17:42;;;;;;;22.20;14.40;;;8.50;55.80;;;;;;5014847;28;20041;-83
2022/02/16 09:20:10;;;;;;;24.73;12.75;;;9.60;53.60;;;;;;4997116;28;20034;-83
2022/02/16 09:22:37;;;;;;;16.95;12.65;;;10.50;50.40;;;;;;4997197;28;20058;-82
2022/02/16 09:25:04;;;;;;;20.42;12.85;;;10.80;49.70;;;;;;5015019;28;20021;-82
2022/02/16 09:27:30;;;;;;;21.60;13.03;;;10.80;47.80;;;;;;4996291;28;20045;-83
2022/02/16 09:29:56;;;;;;;23.63;14.02;;;9.80;48.00;;;;;;4996848;28;20030;-83
2022/02/16 09:32:23;;;;;;;24.33;15.43;;;9.00;50.20;;;;;;5014418;28;20066;-84
2022/02/16 09:35:00;;;;;;;26.02;13.52;;;9.10;51.60;;;;;;5014596;28;20025;-83
2022/02/16 09:37:27;;;;;;;20.10;13.07;;;9.70;49.80;;;;;;5015904;28;20042;-83
2022/02/16 09:39:53;;;;;;;23.87;14.57;;;10.00;49.60;;;;;;5014359;28;20387;-84
2022/02/16 09:42:19;;;;;;;19.85;13.32;;;10.30;49.30;;;;;;5014029;28;20330;-84
2022/02/16 09:45:06;;;;;;;27.67;17.08;;;9.70;48.70;;;;;;4996933;28;20448;-85
2022/02/16 09:47:33;;;;;;;23.60;16.97;;;9.10;50.50;;;;;;5013882;28;20087;-84
2022/02/16 09:50:01;;;;;;;31.52;17.65;;;9.10;51.40;;;;;;5014287;28;20251;-86
2022/02/16 09:52:27;;;;;;;23.45;17.17;;;9.30;51.60;;;;;;5015494;28;20060;-81
2022/02/16 09:54:53;;;;;;;26.83;15.73;;;9.20;51.40;;;;;;4997850;28;20131;-85
2022/02/16 09:57:20;;;;;;;24.50;16.80;;;9.20;51.60;;;;;;5014176;28;20540;-83
2022/02/16 09:59:46;;;;;;;22.67;16.10;;;8.80;52.30;;;;;;5013730;28;20067;-84
2022/02/16 10:02:36;;;;;;;27.13;14.98;;;8.80;52.50;;;;;;4996484;28;20138;-85
2022/02/16 10:05:15;;;;;;;27.60;18.77;;;8.50;52.80;;;;;;5014816;28;20040;-84
2022/02/16 10:07:51;;;;;;;26.40;17.33;;;7.90;54.30;;;;;;5033213;28;20026;-85
2022/02/16 10:10:31;;;;;;;23.38;17.02;;;8.00;55.20;;;;;;5015750;28;20029;-83
2022/02/16 10:13:17;;;;;;;25.05;16.73;;;8.30;55.90;;;;;;5016450;28;20482;-82
2022/02/16 10:16:02;;;;;;;34.43;19.30;;;8.40;54.50;;;;;;5037110;28;20022;-82
2022/02/16 10:18:31;;;;;;;20.98;15.98;;;8.70;54.00;;;;;;5022080;28;20284;-81
2022/02/16 10:21:13;;;;;;;25.05;16.50;;;8.50;54.00;;;;;;5016070;28;20051;-82
2022/02/16 10:23:44;;;;;;;26.65;17.75;;;8.40;54.40;;;;;;5033351;28;20387;-82
2022/02/16 10:29:28;;;;;;;25.15;16.17;;;8.60;53.90;;;;;;5033322;28;20033;-83
2022/02/16 10:31:59;;;;;;;29.77;18.55;;;8.70;53.60;;;;;;5032917;28;20070;-82
2022/02/16 10:34:51;;;;;;;29.33;18.80;;;8.70;53.60;;;;;;5001439;28;20029;-83
2022/02/16 10:37:19;;;;;;;27.20;18.40;;;8.60;53.70;;;;;;4995112;28;20125;-83
2022/02/16 10:40:11;;;;;;;26.88;17.83;;;8.30;54.10;;;;;;4995668;28;20105;-85
2022/02/16 10:42:57;;;;;;;31.52;19.15;;;7.90;54.60;;;;;;4995105;28;20172;-81
2022/02/16 10:45:28;;;;;;;27.90;19.55;;;7.50;55.20;;;;;;4996530;28;20026;-84
2022/02/16 10:47:57;;;;;;;27.50;18.77;;;7.20;56.20;;;;;;5014248;28;20065;-83
2022/02/16 10:50:27;;;;;;;25.08;15.50;;;7.10;56.90;;;;;;5017135;28;20022;-83
2022/02/16 10:53:07;;;;;;;23.67;14.63;;;6.80;57.40;;;;;;5043641;28;20033;-82
2022/02/16 10:55:49;;;;;;;26.45;14.57;;;6.10;59.00;;;;;;5048478;28;20018;-83
2022/02/16 10:58:17;;;;;;;28.30;16.88;;;5.40;60.80;;;;;;5038888;28;20446;-84
2022/02/16 11:00:46;;;;;;;30.27;16.20;;;5.20;62.40;;;;;;5036614;28;20013;-82
2022/02/16 11:03:28;;;;;;;29.02;19.95;;;4.90;63.00;;;;;;5035596;28;20099;-81
2022/02/16 11:05:57;;;;;;;27.40;17.02;;;4.90;63.70;;;;;;5034838;28;20104;-83
2022/02/16 11:08:29;;;;;;;25.98;17.33;;;5.00;63.60;;;;;;5016551;28;20120;-82
2022/02/16 11:10:56;;;;;;;27.98;16.60;;;4.90;63.50;;;;;;5019048;28;20017;-83
2022/02/16 11:13:25;;;;;;;24.25;14.80;;;4.80;63.80;;;;;;5037958;28;20029;-84
2022/02/16 11:15:52;;;;;;;25.55;17.92;;;4.50;64.60;;;;;;5033966;28;20018;-83
2022/02/16 11:18:19;;;;;;;;;;;4.30;65.50;;;;;;5017023;28;20402;-81
2022/02/16 11:21:12;;;;;;;27.23;14.27;;;4.20;65.50;;;;;;5035110;28;19905;-82
2022/02/16 11:23:46;;;;;;;23.98;14.63;;;4.00;66.70;;;;;;5019969;28;20033;-81
2022/02/16 11:26:41;;;;;;;27.08;16.20;;;3.90;67.00;;;;;;5021497;28;20127;-81
2022/02/16 11:29:25;;;;;;;29.23;15.73;;;3.80;67.60;;;;;;5014597;28;20110;-83
2022/02/16 11:32:11;;;;;;;25.73;14.38;;;3.80;67.90;;;;;;5000505;28;20051;-82
2022/02/16 11:34:37;;;;;;;27.67;16.70;;;3.60;68.30;;;;;;4986466;28;20040;-84
2022/02/16 11:37:05;;;;;;;26.17;16.23;;;3.60;68.90;;;;;;5016725;28;20116;-81
2022/02/16 11:39:49;;;;;;;30.70;16.25;;;3.60;69.40;;;;;;5016935;28;20487;-83
2022/02/16 11:42:38;;;;;;;31.70;19.77;;;3.70;69.10;;;;;;4999322;28;20065;-83
2022/02/16 11:45:18;;;;;;;32.38;18.60;;;3.80;69.30;;;;;;5017808;28;20053;-82
2022/02/16 11:47:45;;;;;;;28.67;18.90;;;3.90;69.10;;;;;;5000027;28;20483;-83
2022/02/16 11:50:14;;;;;;;25.30;16.15;;;4.10;69.10;;;;;;5016315;28;20033;-83
2022/02/16 11:52:40;;;;;;;24.17;16.17;;;4.20;68.90;;;;;;4998543;28;20038;-82
2022/02/16 11:55:30;;;;;;;22.20;13.55;;;4.10;68.60;;;;;;5015899;28;20022;-82
2022/02/16 11:58:01;;;;;;;28.27;17.20;;;4.10;69.00;;;;;;5004710;28;20034;-83
2022/02/16 12:00:36;;;;;;;22.40;16.13;;;3.90;69.20;;;;;;5017220;28;20034;-82
2022/02/16 12:03:04;;;;;;;23.98;15.65;;;3.90;70.00;;;;;;5035843;28;20105;-81
2022/02/16 12:05:45;;;;;;;26.67;16.63;;;3.80;70.10;;;;;;5017988;28;20021;-81
2022/02/16 12:08:20;;;;;;;23.27;17.30;;;3.70;70.50;;;;;;5019612;28;20128;-83
2022/02/16 12:10:51;;;;;;;21.75;15.70;;;3.80;70.80;;;;;;5042124;28;20528;-82
2022/02/16 12:13:28;;;;;;;26.42;17.52;;;3.90;70.50;;;;;;5047796;28;20081;-81
2022/02/16 12:16:12;;;;;;;25.33;15.30;;;4.10;70.40;;;;;;5013057;28;20025;-81
2022/02/16 12:18:40;;;;;;;24.90;16.33;;;4.10;69.90;;;;;;5015638;28;20044;-82
2022/02/16 12:21:07;;;;;;;29.38;19.70;;;4.10;70.20;;;;;;5015290;28;20022;-83
2022/02/16 12:23:41;;;;;;;23.70;15.40;;;4.00;70.50;;;;;;5015729;28;20098;-82
2022/02/16 12:26:17;;;;;;;28.17;19.20;;;3.90;70.30;;;;;;4998069;28;20034;-82
2022/02/16 12:28:55;;;;;;;26.85;14.73;;;3.70;71.20;;;;;;5015437;28;20037;-81
2022/02/16 12:31:23;;;;;;;27.23;14.50;;;3.60;71.50;;;;;;5000139;28;20018;-82
2022/02/16 12:33:57;;;;;;;25.08;16.02;;;3.50;71.80;;;;;;4997666;28;20041;-85
2022/02/16 12:36:24;;;;;;;29.67;17.58;;;3.40;72.20;;;;;;5015899;28;20460;-81
2022/02/16 12:38:54;;;;;;;38.40;17.45;;;3.40;72.50;;;;;;4999261;28;20107;-83
2022/02/16 12:41:20;;;;;;;30.20;18.95;;;3.40;72.40;;;;;;4998000;28;20522;-82
2022/02/16 12:44:02;;;;;;;26.73;16.65;;;3.40;72.70;;;;;;5015765;28;20038;-83
2022/02/16 12:46:34;;;;;;;30.52;18.13;;;3.40;73.40;;;;;;5015473;28;20029;-81
2022/02/16 12:49:01;;;;;;;28.73;19.13;;;3.40;73.10;;;;;;5015717;28;20080;-81